Time;durP1;ratioP1;P1;durP2;ratioP2;P2;SDS_P1;SDS_P2;PMS_P1;PMS_P2;Temp;Humidity;BMP_temperature;BMP_pressure;BME280_temperature;BME280_humidity;BME280_pressure;Samples;Min_cycle;Max_cycle;Signal;HPM_P1;HPM_P2
2021/05/17 00:00:57;;;;;;;6.78;3.72;;;11.30;99.90;;;;;;5085099;28;20028;-72
2021/05/17 00:03:24;;;;;;;6.32;3.45;;;11.30;99.90;;;;;;5085184;28;20036;-71
2021/05/17 00:05:50;;;;;;;3.88;2.40;;;11.40;99.90;;;;;;5085355;28;20104;-72
2021/05/17 00:08:16;;;;;;;4.78;2.55;;;11.30;99.90;;;;;;5084748;28;20760;-71
2021/05/17 00:10:42;;;;;;;9.57;2.85;;;11.30;99.90;;;;;;5083444;28;20021;-73
2021/05/17 00:13:08;;;;;;;6.18;2.63;;;11.30;99.90;;;;;;5082560;28;20110;-72
2021/05/17 00:15:34;;;;;;;3.42;2.30;;;11.30;99.90;;;;;;5066411;28;20115;-71
2021/05/17 00:18:00;;;;;;;4.25;2.47;;;11.20;99.90;;;;;;5065031;28;20021;-72
2021/05/17 00:20:26;;;;;;;8.40;2.50;;;11.20;99.90;;;;;;5064815;28;20040;-71
2021/05/17 00:22:53;;;;;;;4.68;2.65;;;11.20;99.90;;;;;;5064616;28;20060;-71
2021/05/17 00:25:22;;;;;;;4.38;2.05;;;11.20;99.90;;;;;;5065075;28;20036;-71
2021/05/17 00:27:50;;;;;;;3.58;2.22;;;11.10;99.90;;;;;;5064817;28;20032;-71
2021/05/17 00:30:16;;;;;;;6.90;2.58;;;11.10;99.90;;;;;;5064441;28;20028;-71
2021/05/17 00:32:42;;;;;;;2.85;1.77;;;11.00;99.90;;;;;;5065072;28;20044;-72
2021/05/17 00:35:09;;;;;;;4.88;2.97;;;11.00;99.90;;;;;;5084323;28;20105;-71
2021/05/17 00:37:35;;;;;;;3.58;2.22;;;10.90;99.90;;;;;;5083163;28;20028;-71
2021/05/17 00:40:00;;;;;;;4.80;2.65;;;10.80;99.90;;;;;;5084667;28;20028;-71
2021/05/17 00:42:26;;;;;;;3.67;2.30;;;10.70;99.90;;;;;;5084557;28;20029;-71
2021/05/17 00:44:52;;;;;;;4.43;2.55;;;10.70;99.90;;;;;;5083364;28;20024;-72
2021/05/17 00:47:18;;;;;;;5.65;2.75;;;10.70;99.90;;;;;;5084986;28;20028;-73
2021/05/17 00:49:45;;;;;;;3.95;1.92;;;10.60;99.90;;;;;;5084110;28;20084;-71
2021/05/17 00:52:13;;;;;;;9.98;2.53;;;10.60;99.90;;;;;;5084284;28;21324;-70
2021/05/17 00:54:39;;;;;;;4.13;2.45;;;10.50;99.90;;;;;;5084572;28;20045;-71
2021/05/17 00:57:06;;;;;;;3.35;2.13;;;10.50;99.90;;;;;;5084258;28;20033;-71
2021/05/17 00:59:32;;;;;;;5.75;2.83;;;10.50;99.90;;;;;;5084642;28;20071;-70
2021/05/17 01:01:59;;;;;;;5.57;2.17;;;10.40;99.90;;;;;;5084670;28;20062;-71
2021/05/17 01:04:24;;;;;;;3.45;1.73;;;10.40;99.90;;;;;;5084540;28;20024;-71
2021/05/17 01:06:53;;;;;;;8.95;2.95;;;10.40;99.90;;;;;;5084500;28;20040;-72
2021/05/17 01:09:20;;;;;;;5.18;2.55;;;10.40;99.90;;;;;;5084463;28;20056;-71
2021/05/17 01:11:46;;;;;;;4.10;2.60;;;10.40;99.90;;;;;;5064275;28;20025;-71
2021/05/17 01:14:15;;;;;;;5.60;2.40;;;10.40;99.90;;;;;;5063958;28;20094;-72
2021/05/17 01:16:40;;;;;;;4.53;2.30;;;10.40;99.90;;;;;;5063916;28;20079;-70
2021/05/17 01:19:10;;;;;;;3.80;2.47;;;10.40;99.90;;;;;;5064167;28;20029;-72
2021/05/17 01:21:41;;;;;;;5.65;2.17;;;10.40;99.90;;;;;;5062876;28;20035;-71
2021/05/17 01:24:07;;;;;;;5.57;2.70;;;10.30;99.90;;;;;;5062665;28;20051;-70
2021/05/17 01:26:36;;;;;;;4.55;2.35;;;10.40;99.90;;;;;;5064296;28;20036;-72
2021/05/17 01:29:05;;;;;;;4.50;2.90;;;10.40;99.90;;;;;;5064079;28;20025;-72
2021/05/17 01:31:31;;;;;;;3.63;2.58;;;10.40;99.90;;;;;;5062326;28;20028;-70
2021/05/17 01:33:57;;;;;;;8.00;2.63;;;10.40;99.90;;;;;;5064117;28;20037;-72
2021/05/17 01:36:24;;;;;;;5.53;2.50;;;10.30;99.90;;;;;;5064223;28;20082;-72
2021/05/17 01:38:52;;;;;;;7.65;3.08;;;10.30;99.90;;;;;;5062822;28;20108;-71
2021/05/17 01:41:20;;;;;;;3.45;2.25;;;10.30;99.90;;;;;;5064127;28;20028;-71
2021/05/17 01:43:53;;;;;;;4.70;2.50;;;10.30;99.90;;;;;;5064030;28;20026;-71
2021/05/17 01:46:24;;;;;;;10.23;2.67;;;10.30;99.90;;;;;;5063546;28;20590;-73
2021/05/17 01:48:53;;;;;;;3.90;2.30;;;10.30;99.90;;;;;;5064267;28;20039;-71
2021/05/17 01:51:20;;;;;;;6.90;2.58;;;10.20;99.90;;;;;;5063689;28;20032;-72
2021/05/17 01:53:47;;;;;;;5.63;2.63;;;10.20;99.90;;;;;;5065425;28;20043;-73
2021/05/17 01:56:14;;;;;;;9.15;3.47;;;10.20;99.90;;;;;;5067536;28;20076;-72
2021/05/17 01:58:41;;;;;;;6.78;2.80;;;10.20;99.90;;;;;;5067523;28;20040;-71
2021/05/17 02:01:09;;;;;;;5.72;3.10;;;10.20;99.90;;;;;;5066146;28;20116;-72
2021/05/17 02:03:39;;;;;;;4.88;2.75;;;10.20;99.90;;;;;;5067301;28;20025;-73
2021/05/17 02:06:07;;;;;;;6.32;2.78;;;10.10;99.90;;;;;;5066926;28;20072;-72
2021/05/17 02:08:33;;;;;;;6.95;3.20;;;10.00;99.90;;;;;;5067110;28;20029;-72
2021/05/17 02:11:00;;;;;;;5.55;3.08;;;10.00;99.90;;;;;;5067425;28;20113;-72
2021/05/17 02:13:27;;;;;;;10.10;2.10;;;10.00;99.90;;;;;;5066975;28;20036;-72
2021/05/17 02:15:53;;;;;;;7.55;3.53;;;9.90;99.90;;;;;;5067331;28;20017;-72
2021/05/17 02:18:19;;;;;;;4.50;2.50;;;9.90;99.90;;;;;;5067327;28;20039;-71
2021/05/17 02:20:46;;;;;;;4.65;2.55;;;9.90;99.90;;;;;;5066150;28;20088;-71
2021/05/17 02:23:14;;;;;;;5.78;3.15;;;9.90;99.90;;;;;;5066345;28;20643;-72
2021/05/17 02:25:48;;;;;;;10.25;3.10;;;9.90;99.90;;;;;;5066686;28;20032;-72
2021/05/17 02:28:15;;;;;;;8.95;3.65;;;9.80;99.90;;;;;;5066210;28;20103;-71
2021/05/17 02:30:41;;;;;;;8.35;4.10;;;9.90;99.90;;;;;;5066747;28;20029;-71
2021/05/17 02:33:08;;;;;;;6.65;3.08;;;9.80;99.90;;;;;;5066707;28;20047;-72
2021/05/17 02:35:34;;;;;;;6.35;3.63;;;9.80;99.90;;;;;;5066430;28;20029;-72
2021/05/17 02:38:02;;;;;;;10.00;3.30;;;9.80;99.90;;;;;;5066603;28;20025;-73
2021/05/17 02:40:28;;;;;;;10.57;3.63;;;9.80;99.90;;;;;;5066415;28;20021;-73
2021/05/17 02:43:19;;;;;;;4.80;3.03;;;9.70;99.90;;;;;;5066570;28;20024;-73
2021/05/17 02:45:45;;;;;;;5.60;2.85;;;9.70;99.90;;;;;;5066918;28;20066;-69
2021/05/17 02:48:11;;;;;;;6.88;3.03;;;9.70;99.90;;;;;;5065100;28;20029;-71
2021/05/17 02:50:40;;;;;;;12.02;3.08;;;9.60;99.90;;;;;;5066271;28;20029;-71
2021/05/17 02:53:28;;;;;;;9.95;2.75;;;9.60;99.90;;;;;;5064261;28;20064;-71
2021/05/17 02:56:06;;;;;;;6.82;3.10;;;9.50;99.90;;;;;;5066244;28;20052;-71
2021/05/17 02:58:36;;;;;;;5.68;2.95;;;9.50;99.90;;;;;;5066442;28;20028;-72
2021/05/17 03:01:40;;;;;;;8.60;3.53;;;9.50;99.90;;;;;;5066011;28;20378;-71
2021/05/17 03:04:15;;;;;;;8.70;3.90;;;9.50;99.90;;;;;;5082930;28;20107;-71
2021/05/17 03:06:54;;;;;;;8.27;2.83;;;9.50;99.90;;;;;;5068306;28;20043;-70
2021/05/17 03:09:20;;;;;;;5.45;3.53;;;9.50;99.90;;;;;;5066069;28;20085;-71
2021/05/17 03:11:51;;;;;;;6.35;3.05;;;9.50;99.90;;;;;;5066232;28;20056;-71
2021/05/17 03:14:17;;;;;;;4.88;2.47;;;9.50;99.90;;;;;;5066124;28;20040;-73
2021/05/17 03:16:48;;;;;;;6.82;3.72;;;9.50;99.90;;;;;;5065686;28;20386;-70
2021/05/17 03:19:15;;;;;;;7.30;3.22;;;9.50;99.90;;;;;;5064826;28;20028;-71
2021/05/17 03:21:43;;;;;;;5.90;3.17;;;9.50;99.90;;;;;;5065610;28;20021;-72
2021/05/17 03:24:10;;;;;;;6.78;2.90;;;9.50;99.90;;;;;;5065628;28;20032;-70
2021/05/17 03:26:37;;;;;;;7.75;2.50;;;9.50;99.90;;;;;;5065793;28;20105;-71
2021/05/17 03:29:03;;;;;;;9.95;3.30;;;9.50;99.90;;;;;;5065564;28;20033;-70
2021/05/17 03:31:29;;;;;;;6.43;3.30;;;9.40;99.90;;;;;;5065665;28;20385;-72
2021/05/17 03:33:58;;;;;;;8.80;4.15;;;9.50;99.90;;;;;;5064474;28;20040;-70
2021/05/17 03:36:24;;;;;;;8.43;3.60;;;9.50;99.90;;;;;;5065329;28;20036;-71
2021/05/17 03:38:50;;;;;;;8.57;3.83;;;9.50;99.90;;;;;;5065662;28;20037;-70
2021/05/17 03:41:15;;;;;;;9.05;3.83;;;9.50;99.90;;;;;;5065715;28;20029;-71
2021/05/17 03:43:41;;;;;;;10.50;3.60;;;9.50;99.90;;;;;;5065202;28;20036;-68
2021/05/17 03:46:07;;;;;;;8.13;3.33;;;9.40;99.90;;;;;;5065522;28;20075;-70
2021/05/17 03:48:40;;;;;;;12.52;3.75;;;9.50;99.90;;;;;;5065444;28;20426;-70
2021/05/17 03:51:06;;;;;;;5.78;3.50;;;9.40;99.90;;;;;;5064843;28;20055;-72
2021/05/17 03:53:32;;;;;;;9.77;2.88;;;9.40;99.90;;;;;;5063698;28;20071;-71
2021/05/17 03:55:57;;;;;;;6.95;3.60;;;9.40;99.90;;;;;;5065284;28;20024;-72
2021/05/17 03:58:23;;;;;;;4.13;3.03;;;9.40;99.90;;;;;;5064011;28;20033;-70
2021/05/17 04:00:49;;;;;;;10.32;4.03;;;9.40;99.90;;;;;;5065385;28;20033;-71
2021/05/17 04:03:17;;;;;;;5.75;2.90;;;9.40;99.90;;;;;;5065211;28;20047;-70
2021/05/17 04:13:59;;;;;;;6.53;3.63;;;9.50;99.90;;;;;;5064930;28;20047;-70
2021/05/17 04:16:25;;;;;;;8.77;4.10;;;9.50;99.90;;;;;;5064818;28;20029;-72
2021/05/17 04:18:51;;;;;;;5.13;2.67;;;9.60;99.90;;;;;;5064786;28;20063;-71
2021/05/17 04:21:17;;;;;;;10.70;3.80;;;9.60;99.90;;;;;;5063379;28;20040;-70
2021/05/17 04:23:43;;;;;;;9.50;3.95;;;9.60;99.90;;;;;;5064789;28;20037;-71
2021/05/17 04:26:09;;;;;;;20.52;4.05;;;9.70;99.90;;;;;;5064232;28;20029;-71
2021/05/17 04:28:34;;;;;;;6.72;3.08;;;9.70;99.90;;;;;;5064675;28;20047;-70
2021/05/17 04:31:00;;;;;;;16.30;4.18;;;9.70;99.90;;;;;;5064910;28;20033;-70
2021/05/17 04:33:26;;;;;;;13.13;3.97;;;9.80;99.90;;;;;;5064622;28;20032;-70
2021/05/17 04:35:52;;;;;;;8.75;3.95;;;9.90;99.90;;;;;;5064811;28;20021;-71
2021/05/17 04:38:17;;;;;;;11.52;5.15;;;9.90;99.90;;;;;;5064653;28;20041;-70
2021/05/17 04:40:45;;;;;;;7.40;3.40;;;10.00;99.90;;;;;;5064297;28;20025;-70
2021/05/17 04:43:10;;;;;;;6.60;3.40;;;10.00;99.90;;;;;;5064591;28;20021;-70
2021/05/17 04:45:36;;;;;;;6.88;3.38;;;10.10;99.90;;;;;;5064636;28;20027;-72
2021/05/17 04:48:02;;;;;;;14.65;4.55;;;10.10;99.90;;;;;;5062869;28;20047;-72
2021/05/17 04:50:27;;;;;;;6.38;3.53;;;10.10;99.90;;;;;;5064617;28;20032;-72
2021/05/17 04:52:53;;;;;;;7.38;3.53;;;10.20;99.90;;;;;;5062985;28;20049;-73
2021/05/17 04:55:19;;;;;;;8.82;4.38;;;10.20;99.90;;;;;;5064272;28;20060;-72
2021/05/17 04:57:45;;;;;;;9.35;4.30;;;10.20;99.90;;;;;;5064431;28;20024;-72
2021/05/17 05:00:11;;;;;;;6.20;3.33;;;10.20;99.90;;;;;;5064218;28;20021;-70
2021/05/17 05:02:38;;;;;;;6.03;3.67;;;10.20;99.90;;;;;;5064094;28;20021;-69
2021/05/17 05:05:05;;;;;;;7.50;4.25;;;10.20;99.90;;;;;;5064402;28;20059;-70
2021/05/17 05:07:30;;;;;;;7.15;3.85;;;10.20;99.90;;;;;;5064696;28;20115;-70
2021/05/17 05:09:56;;;;;;;8.30;4.38;;;10.20;99.90;;;;;;5084270;28;20029;-68
2021/05/17 05:12:21;;;;;;;25.13;4.35;;;10.20;99.90;;;;;;5084592;28;20059;-70
2021/05/17 05:14:47;;;;;;;6.00;3.83;;;10.20;99.90;;;;;;5084371;28;20423;-71
2021/05/17 05:17:13;;;;;;;8.45;4.40;;;10.20;99.90;;;;;;5084030;28;20431;-70
2021/05/17 05:19:38;;;;;;;6.47;3.90;;;10.30;99.90;;;;;;5082975;28;20025;-71
2021/05/17 05:22:04;;;;;;;10.90;4.13;;;10.30;99.90;;;;;;5065339;28;20025;-70
2021/05/17 05:24:29;;;;;;;7.75;4.15;;;10.30;99.90;;;;;;5063124;28;20047;-70
2021/05/17 05:29:46;;;;;;;9.70;3.90;;;10.40;99.90;;;;;;5067907;28;20082;-71
2021/05/17 05:32:29;;;;;;;11.80;4.55;;;10.50;99.90;;;;;;5066482;28;20036;-70
2021/05/17 05:34:54;;;;;;;9.10;3.80;;;10.50;99.90;;;;;;5068038;28;20063;-70
2021/05/17 05:37:20;;;;;;;7.53;3.72;;;10.50;99.90;;;;;;5067420;28;20025;-70
2021/05/17 05:39:45;;;;;;;6.82;4.07;;;10.60;99.90;;;;;;5067843;28;20036;-70
2021/05/17 05:42:11;;;;;;;9.50;4.28;;;10.60;99.90;;;;;;5067853;28;20033;-71
2021/05/17 05:44:43;;;;;;;8.88;4.97;;;10.70;99.90;;;;;;5075726;28;20024;-72
2021/05/17 05:47:11;;;;;;;11.73;5.00;;;10.70;99.90;;;;;;5067612;28;20048;-72
2021/05/17 05:49:37;;;;;;;6.40;4.10;;;10.70;99.90;;;;;;5067563;28;20021;-71
2021/05/17 05:52:03;;;;;;;8.07;3.83;;;10.70;99.90;;;;;;5066761;28;20052;-72
2021/05/17 05:54:28;;;;;;;11.65;5.78;;;10.70;99.90;;;;;;5066759;28;20045;-74
2021/05/17 05:56:54;;;;;;;14.90;4.82;;;10.80;99.90;;;;;;5064819;28;20075;-72
2021/05/17 05:59:19;;;;;;;16.10;4.40;;;10.90;99.90;;;;;;5066237;28;20031;-72
2021/05/17 06:01:45;;;;;;;11.88;4.93;;;10.90;99.90;;;;;;5067403;28;20027;-72
2021/05/17 06:04:11;;;;;;;10.68;5.03;;;11.00;99.90;;;;;;5070457;28;20472;-73
2021/05/17 06:06:36;;;;;;;10.77;4.80;;;11.10;99.90;;;;;;5079333;28;20035;-71
2021/05/17 06:09:03;;;;;;;7.30;4.57;;;11.10;99.90;;;;;;5086032;28;20032;-73
2021/05/17 06:11:29;;;;;;;13.82;5.55;;;11.20;99.90;;;;;;5087222;28;20035;-71
2021/05/17 06:13:55;;;;;;;8.98;4.88;;;11.20;99.90;;;;;;5085553;28;20044;-73
2021/05/17 06:16:20;;;;;;;17.48;5.55;;;11.30;99.90;;;;;;5086463;28;20037;-71
2021/05/17 06:18:46;;;;;;;9.43;4.80;;;11.40;99.90;;;;;;5073551;28;20044;-73
2021/05/17 06:21:12;;;;;;;16.45;5.93;;;11.50;99.90;;;;;;5066377;28;20036;-73
2021/05/17 06:23:39;;;;;;;13.77;5.07;;;11.60;99.90;;;;;;5066788;28;20088;-71
2021/05/17 06:26:05;;;;;;;6.90;3.95;;;11.60;99.90;;;;;;5066843;28;20025;-72
2021/05/17 06:28:31;;;;;;;11.75;4.93;;;11.60;99.90;;;;;;5066478;28;20036;-71
2021/05/17 06:31:00;;;;;;;8.00;4.38;;;11.60;99.90;;;;;;5066745;28;20052;-71
2021/05/17 06:33:26;;;;;;;9.68;4.82;;;11.60;99.90;;;;;;5066944;28;20036;-72
2021/05/17 06:35:56;;;;;;;10.38;5.03;;;11.70;99.90;;;;;;5067165;28;20029;-70
2021/05/17 06:38:23;;;;;;;11.35;4.80;;;11.70;99.90;;;;;;5066621;28;20039;-75
2021/05/17 06:40:48;;;;;;;13.85;5.60;;;11.80;99.90;;;;;;5066885;28;20032;-72
2021/05/17 06:43:15;;;;;;;14.45;5.05;;;11.80;99.90;;;;;;5066518;28;20488;-72
2021/05/17 06:45:41;;;;;;;13.70;5.00;;;11.90;99.90;;;;;;5071660;28;20082;-73
2021/05/17 06:48:08;;;;;;;16.33;5.75;;;11.90;99.90;;;;;;5073253;28;20075;-73
2021/05/17 06:50:34;;;;;;;14.27;6.03;;;12.00;99.90;;;;;;5066736;28;20049;-69
2021/05/17 06:53:00;;;;;;;14.77;5.80;;;12.20;99.90;;;;;;5066071;28;20045;-70
2021/05/17 06:55:38;;;;;;;11.65;5.60;;;12.50;99.90;;;;;;5065042;28;20096;-73
2021/05/17 07:00:31;;;;;;;17.77;6.65;;;12.90;99.90;;;;;;5074376;28;20020;-69
2021/05/17 07:03:02;;;;;;;11.98;5.43;;;13.10;99.90;;;;;;5066242;28;20570;-71
2021/05/17 07:05:28;;;;;;;15.35;6.55;;;13.10;99.90;;;;;;5063785;28;20116;-69
2021/05/17 07:13:13;;;;;;;14.10;6.45;;;12.90;99.90;;;;;;5082070;28;20038;-76
2021/05/17 07:15:38;;;;;;;14.70;6.82;;;12.70;99.90;;;;;;5075745;28;20036;-71
2021/05/17 07:18:04;;;;;;;12.73;6.05;;;12.60;99.90;;;;;;5064822;28;20033;-73
2021/05/17 07:26:03;;;;;;;11.20;5.45;;;12.10;99.90;;;;;;5086345;28;20078;-73
2021/05/17 07:28:29;;;;;;;11.52;5.45;;;12.10;99.90;;;;;;5080485;28;20634;-74
2021/05/17 07:30:55;;;;;;;11.75;5.70;;;12.00;99.90;;;;;;5066027;28;20025;-74
2021/05/17 07:33:21;;;;;;;10.80;4.68;;;11.90;99.90;;;;;;5066024;28;20054;-71
2021/05/17 07:35:47;;;;;;;15.23;6.55;;;11.90;99.90;;;;;;5065457;28;20104;-71
2021/05/17 07:38:12;;;;;;;9.38;5.40;;;11.90;99.90;;;;;;5065537;28;20029;-71
2021/05/17 07:40:38;;;;;;;17.20;6.78;;;11.80;99.90;;;;;;5065426;28;20033;-71
2021/05/17 07:43:04;;;;;;;14.75;5.65;;;11.90;99.90;;;;;;5065293;28;20024;-72
2021/05/17 07:45:30;;;;;;;9.50;5.65;;;11.90;99.90;;;;;;5064300;28;20089;-74
2021/05/17 07:47:56;;;;;;;12.20;5.15;;;12.00;99.90;;;;;;5064329;28;20029;-75
2021/05/17 07:50:22;;;;;;;11.48;5.25;;;12.10;99.90;;;;;;5064382;28;20036;-75
2021/05/17 07:52:48;;;;;;;10.00;5.32;;;12.10;99.90;;;;;;5061997;28;20057;-73
2021/05/17 07:55:19;;;;;;;17.60;6.40;;;12.30;99.90;;;;;;5063902;28;20510;-74
2021/05/17 07:57:45;;;;;;;10.27;5.10;;;12.30;99.90;;;;;;5064594;28;20028;-74
2021/05/17 08:00:11;;;;;;;10.43;5.18;;;12.40;99.90;;;;;;5063488;28;20097;-72
2021/05/17 08:02:37;;;;;;;14.32;5.25;;;12.40;99.90;;;;;;5064897;28;20370;-73
2021/05/17 08:05:03;;;;;;;9.80;4.28;;;12.40;99.90;;;;;;5064432;28;20035;-74
2021/05/17 08:07:29;;;;;;;9.35;5.30;;;12.40;99.90;;;;;;5065259;28;20052;-71
2021/05/17 08:09:55;;;;;;;7.13;3.55;;;12.50;99.90;;;;;;5076488;28;20021;-74
2021/05/17 08:12:21;;;;;;;7.10;4.05;;;12.60;99.90;;;;;;5082213;28;20032;-72
2021/05/17 08:14:47;;;;;;;8.90;4.13;;;12.60;99.90;;;;;;5084386;28;20040;-72
2021/05/17 08:17:13;;;;;;;11.18;4.78;;;12.70;99.90;;;;;;5075134;28;20037;-75
2021/05/17 08:19:38;;;;;;;11.20;4.72;;;12.80;99.90;;;;;;5063908;28;20040;-71
2021/05/17 08:22:05;;;;;;;10.45;4.97;;;12.90;99.90;;;;;;5064274;28;20031;-72
2021/05/17 08:24:30;;;;;;;11.20;4.35;;;13.00;99.90;;;;;;5064321;28;20033;-73
2021/05/17 08:26:56;;;;;;;13.10;4.75;;;13.20;99.90;;;;;;5064334;28;20049;-72
2021/05/17 08:29:22;;;;;;;10.93;4.40;;;13.30;99.90;;;;;;5063285;28;20032;-76
2021/05/17 08:31:50;;;;;;;5.53;3.17;;;13.50;99.90;;;;;;5075819;28;20039;-73
2021/05/17 08:34:17;;;;;;;11.68;3.63;;;13.50;99.90;;;;;;5084612;28;20056;-77
2021/05/17 08:36:42;;;;;;;9.45;4.85;;;13.50;99.90;;;;;;5070108;28;20100;-74
2021/05/17 08:39:09;;;;;;;6.20;3.47;;;13.50;99.90;;;;;;5064505;28;20060;-75
2021/05/17 08:41:36;;;;;;;5.22;3.15;;;13.50;99.90;;;;;;5064655;28;20021;-74
2021/05/17 08:44:04;;;;;;;7.25;3.50;;;13.40;99.90;;;;;;5063237;28;20036;-72
2021/05/17 08:46:29;;;;;;;8.48;4.03;;;13.50;99.90;;;;;;5076237;28;20063;-76
2021/05/17 08:48:55;;;;;;;4.63;2.75;;;13.50;99.90;;;;;;5084875;28;20435;-73
2021/05/17 08:51:27;;;;;;;7.65;3.38;;;13.50;99.90;;;;;;5084455;28;20024;-72
2021/05/17 08:53:56;;;;;;;4.68;2.83;;;13.50;99.90;;;;;;5084251;28;20040;-74
2021/05/17 08:56:22;;;;;;;6.93;3.55;;;13.50;99.90;;;;;;5084884;28;20082;-77
2021/05/17 08:58:48;;;;;;;8.50;4.40;;;13.60;99.90;;;;;;5084435;28;20021;-74
2021/05/17 09:01:14;;;;;;;16.40;5.63;;;13.60;99.90;;;;;;5084297;28;20024;-72
2021/05/17 09:03:40;;;;;;;14.70;5.70;;;13.60;99.90;;;;;;5088196;28;20035;-75
2021/05/17 09:06:09;;;;;;;8.93;4.85;;;13.60;99.90;;;;;;5071038;28;20393;-76
2021/05/17 09:08:42;;;;;;;9.95;5.18;;;13.60;99.90;;;;;;5066687;28;20029;-72
2021/05/17 09:11:08;;;;;;;11.27;4.75;;;13.60;99.90;;;;;;5068447;28;20021;-75
2021/05/17 09:13:34;;;;;;;10.25;4.35;;;13.70;99.90;;;;;;5067058;28;20061;-73
2021/05/17 09:16:00;;;;;;;8.32;4.70;;;13.70;99.90;;;;;;5066641;28;20052;-71
2021/05/17 09:18:30;;;;;;;8.27;4.57;;;13.70;99.90;;;;;;5068341;28;20051;-77
2021/05/17 09:20:58;;;;;;;13.25;4.90;;;13.70;99.90;;;;;;5068101;28;20102;-73
2021/05/17 09:23:31;;;;;;;11.13;4.10;;;13.70;99.90;;;;;;5068182;28;20021;-75
2021/05/17 09:26:01;;;;;;;5.93;3.92;;;13.80;99.90;;;;;;5068384;28;20025;-74
2021/05/17 09:28:46;;;;;;;9.07;4.05;;;13.90;99.90;;;;;;5067773;28;20029;-72
2021/05/17 09:31:20;;;;;;;4.63;2.58;;;14.00;99.90;;;;;;5066478;28;20123;-74
2021/05/17 09:33:48;;;;;;;5.90;3.67;;;14.10;99.90;;;;;;5068156;28;20087;-73
2021/05/17 09:36:39;;;;;;;5.15;3.03;;;14.30;99.90;;;;;;5072786;28;20029;-72
2021/05/17 09:39:06;;;;;;;3.53;1.95;;;14.60;99.90;;;;;;5067560;28;20059;-73
2021/05/17 09:41:44;;;;;;;3.58;1.98;;;14.90;99.90;;;;;;5080091;28;20384;-72
2021/05/17 09:44:18;;;;;;;2.20;1.60;;;15.10;99.90;;;;;;5087675;28;20036;-71
2021/05/17 09:47:00;;;;;;;3.53;1.83;;;15.10;99.90;;;;;;5087546;28;20091;-72
2021/05/17 09:49:42;;;;;;;3.38;2.05;;;15.10;99.90;;;;;;5087682;28;20021;-73
2021/05/17 09:52:13;;;;;;;1.67;1.40;;;15.00;99.90;;;;;;5066059;28;20060;-72
2021/05/17 09:54:56;;;;;;;7.30;1.90;;;15.00;99.90;;;;;;5067571;28;20033;-77
2021/05/17 09:57:43;;;;;;;3.95;1.75;;;15.10;99.90;;;;;;5067748;28;20853;-72
2021/05/17 10:00:16;;;;;;;6.00;1.73;;;15.20;99.90;;;;;;5066414;28;20041;-73
2021/05/17 10:02:46;;;;;;;5.28;2.25;;;15.20;99.90;;;;;;5067128;28;20033;-75
2021/05/17 10:05:29;;;;;;;7.10;2.20;;;15.50;99.90;;;;;;5067468;28;20084;-74
2021/05/17 10:07:57;;;;;;;5.00;2.58;;;15.60;99.90;;;;;;5067297;28;20029;-72
2021/05/17 10:10:24;;;;;;;5.70;3.13;;;15.80;99.90;;;;;;5084997;28;20469;-71
2021/05/17 10:12:54;;;;;;;5.40;3.17;;;15.90;99.90;;;;;;5085707;28;20504;-74
2021/05/17 10:15:22;;;;;;;6.88;3.15;;;15.90;99.90;;;;;;5087377;28;20043;-75
2021/05/17 10:17:48;;;;;;;5.72;3.08;;;15.80;99.90;;;;;;5087027;28;20065;-72
2021/05/17 10:20:18;;;;;;;4.88;2.53;;;15.70;99.90;;;;;;5086957;28;20021;-72
2021/05/17 10:22:45;;;;;;;4.65;2.47;;;15.50;99.90;;;;;;5086910;28;20037;-73
2021/05/17 10:25:13;;;;;;;5.13;2.60;;;15.50;99.90;;;;;;5085313;28;20656;-72
2021/05/17 10:27:44;;;;;;;4.15;2.67;;;15.60;99.90;;;;;;5087098;28;20048;-74
2021/05/17 10:30:11;;;;;;;4.53;3.08;;;15.70;99.90;;;;;;5084345;28;20044;-72
2021/05/17 10:32:53;;;;;;;5.32;3.45;;;15.70;99.90;;;;;;5065350;28;20032;-77
2021/05/17 10:35:29;;;;;;;3.35;2.40;;;15.70;99.90;;;;;;5066603;28;20033;-75
2021/05/17 10:41:03;;;;;;;5.43;3.38;;;15.90;99.90;;;;;;5066747;28;20081;-76
2021/05/17 10:43:59;;;;;;;5.72;3.28;;;16.00;99.90;;;;;;5066557;28;20036;-76
2021/05/17 10:46:47;;;;;;;5.82;3.28;;;16.40;99.90;;;;;;5065537;28;20047;-71
2021/05/17 10:49:34;;;;;;;3.42;2.60;;;16.70;99.90;;;;;;5066414;28;20055;-73
2021/05/17 10:52:10;;;;;;;5.13;2.13;;;16.90;99.90;;;;;;5066258;28;20052;-73
2021/05/17 10:54:41;;;;;;;3.05;2.00;;;16.90;99.90;;;;;;5064759;28;20456;-69
2021/05/17 10:57:31;;;;;;;3.25;2.15;;;16.80;99.90;;;;;;5066613;28;20060;-72
2021/05/17 11:02:43;;;;;;;3.03;1.92;;;16.50;99.90;;;;;;5066430;28;20415;-70
2021/05/17 11:05:20;;;;;;;3.33;2.05;;;16.40;99.90;;;;;;5064343;28;20040;-71
2021/05/17 11:07:47;;;;;;;4.72;2.25;;;16.20;99.90;;;;;;5066034;28;20025;-76
2021/05/17 11:10:12;;;;;;;3.55;2.15;;;16.10;99.90;;;;;;5065241;28;20025;-73
2021/05/17 11:12:41;;;;;;;3.80;1.83;;;15.90;99.90;;;;;;5064517;28;20071;-73
2021/05/17 11:15:13;;;;;;;3.53;2.00;;;15.80;99.90;;;;;;5065743;28;20370;-76
2021/05/17 11:18:01;;;;;;;9.70;2.22;;;15.60;99.90;;;;;;5065733;28;20071;-76
2021/05/17 11:20:52;;;;;;;5.50;2.25;;;15.40;99.90;;;;;;5065894;28;20032;-75
2021/05/17 11:23:40;;;;;;;7.90;3.03;;;15.30;99.90;;;;;;5064594;28;20033;-70
2021/05/17 11:26:11;;;;;;;4.00;2.20;;;15.20;99.90;;;;;;5064745;28;20029;-76
2021/05/17 11:28:41;;;;;;;3.75;2.38;;;15.10;99.90;;;;;;5065106;28;20021;-72
2021/05/17 11:31:42;;;;;;;3.85;2.33;;;15.10;99.90;;;;;;5065788;28;20064;-72
2021/05/17 11:34:17;;;;;;;6.32;2.55;;;15.20;99.90;;;;;;5065421;28;20063;-73
2021/05/17 11:36:53;;;;;;;6.45;3.25;;;15.30;99.90;;;;;;5063543;28;20691;-72
2021/05/17 11:39:21;;;;;;;4.75;2.78;;;15.30;99.90;;;;;;5063450;28;20027;-74
2021/05/17 11:41:53;;;;;;;5.43;3.00;;;15.50;99.90;;;;;;5064728;28;20103;-71
2021/05/17 11:44:36;;;;;;;4.18;2.65;;;15.50;99.90;;;;;;5063662;28;20477;-73
2021/05/17 11:47:08;;;;;;;3.13;2.00;;;15.50;99.90;;;;;;5065401;28;20021;-72
2021/05/17 11:49:36;;;;;;;5.50;3.38;;;15.40;99.90;;;;;;5065084;28;20085;-75
2021/05/17 11:52:08;;;;;;;5.05;2.78;;;15.30;99.90;;;;;;5063804;28;20557;-74
2021/05/17 11:54:46;;;;;;;6.35;2.88;;;15.10;99.90;;;;;;5065105;28;20044;-73
2021/05/17 11:57:12;;;;;;;6.80;2.17;;;14.80;99.90;;;;;;5064926;28;20021;-76
2021/05/17 11:59:39;;;;;;;2.80;2.20;;;14.60;99.90;;;;;;5065368;28;20051;-72
2021/05/17 12:02:10;;;;;;;13.90;2.58;;;14.30;99.90;;;;;;5065130;28;20027;-75
2021/05/17 12:04:38;;;;;;;8.07;2.42;;;13.90;99.90;;;;;;5063776;28;20099;-73
2021/05/17 12:07:06;;;;;;;4.25;1.98;;;13.70;99.90;;;;;;5065030;28;20033;-74
2021/05/17 12:09:37;;;;;;;3.95;1.98;;;13.40;99.90;;;;;;5064950;28;20025;-77
2021/05/17 12:12:06;;;;;;;6.78;3.00;;;13.20;99.90;;;;;;5064857;28;20025;-75
2021/05/17 12:14:32;;;;;;;14.57;5.22;;;13.00;99.90;;;;;;5064948;28;20033;-74
2021/05/17 12:17:05;;;;;;;9.38;4.50;;;12.90;99.90;;;;;;5064820;28;20044;-75
2021/05/17 12:19:31;;;;;;;6.13;2.35;;;12.90;99.90;;;;;;5082967;28;20036;-71
2021/05/17 12:22:05;;;;;;;3.97;1.70;;;12.80;99.90;;;;;;5084909;28;20021;-72
2021/05/17 12:24:31;;;;;;;3.47;2.00;;;13.00;99.90;;;;;;5084641;28;20072;-76
2021/05/17 12:27:05;;;;;;;3.15;1.52;;;13.10;99.90;;;;;;5083070;28;20025;-75
2021/05/17 12:29:50;;;;;;;2.88;1.30;;;13.20;99.90;;;;;;5084536;28;20062;-73
2021/05/17 12:32:16;;;;;;;2.10;1.33;;;13.50;99.90;;;;;;5084730;28;20032;-73
2021/05/17 12:34:58;;;;;;;2.35;1.60;;;13.70;99.90;;;;;;5084576;28;20159;-75
2021/05/17 12:37:27;;;;;;;2.67;1.88;;;14.10;99.90;;;;;;5083316;28;20028;-74
2021/05/17 12:40:14;;;;;;;4.47;1.85;;;14.20;99.90;;;;;;5084606;28;20165;-77
2021/05/17 12:42:41;;;;;;;2.78;1.75;;;14.60;99.90;;;;;;5084380;28;20052;-79
2021/05/17 12:45:14;;;;;;;4.05;1.98;;;14.80;99.90;;;;;;5084406;28;20024;-73
2021/05/17 12:47:44;;;;;;;15.45;1.90;;;15.00;99.90;;;;;;5084155;28;20024;-73
2021/05/17 12:50:20;;;;;;;1.55;1.30;;;15.20;99.90;;;;;;5084462;28;20080;-74
2021/05/17 12:52:47;;;;;;;2.83;1.65;;;15.20;99.90;;;;;;5083522;28;20052;-73
2021/05/17 12:55:19;;;;;;;3.25;1.65;;;15.60;99.90;;;;;;5084826;28;20041;-72
2021/05/17 12:57:56;;;;;;;2.20;0.93;;;15.90;99.90;;;;;;5084914;28;20048;-72
2021/05/17 13:00:34;;;;;;;2.28;1.08;;;15.90;99.90;;;;;;5083105;28;20028;-71
2021/05/17 13:03:05;;;;;;;1.40;0.95;;;16.00;99.90;;;;;;5080960;28;20028;-72
2021/05/17 13:06:00;;;;;;;3.55;1.60;;;15.90;99.90;;;;;;5081838;28;20615;-75
2021/05/17 13:08:28;;;;;;;;;;;16.00;99.90;;;;;;5083844;28;20025;-76
2021/05/17 13:11:02;;;;;;;3.80;2.08;;;16.30;99.90;;;;;;5082539;28;19911;-75
2021/05/17 13:13:44;;;;;;;2.90;1.98;;;16.70;99.90;;;;;;5082292;28;20035;-75
2021/05/17 13:16:20;;;;;;;4.10;2.28;;;17.00;99.90;;;;;;5082037;28;20028;-74
2021/05/17 13:18:57;;;;;;;3.25;1.75;;;17.20;99.90;;;;;;5083566;28;21182;-73
2021/05/17 13:21:36;;;;;;;3.33;2.00;;;17.30;99.90;;;;;;5082285;28;20089;-79
2021/05/17 13:30:02;;;;;;;2.67;1.67;;;17.70;99.90;;;;;;5083329;28;20051;-71
2021/05/17 13:32:29;;;;;;;2.28;1.48;;;18.00;99.90;;;;;;5083667;28;20025;-72